Elvira+3 — 8598 — position and weather

sailwx.info

Track history (hours):
 
Tides and Currents Weather Stations Pressure Air Temp Water Temp Dewpoint Dewpoint Depression Visibility Wind Speed Wind Dir Waves Ship Positions

Elvira+3

Last reported at 2018-Feb-25 05:07 UTC. Time now 2018-Feb-25 05:54 UTC.
Position N 44°16' E 028°11'.

Length 165 m.

Type: Cargo ship. MMSI: 238493940.

Date/timePositionNaut miles runAvg speedWind from/ knotsBaromVisibWave heightAir tempDewpointWater temp
2018-Feb-25 05:07N 44°16' E 028°11'1 4.8
2018-Feb-25 05:00N 44°16' E 028°12'3 4.8
2018-Feb-25 04:28N 44°15' E 028°16'2 4.4
2018-Feb-25 04:00N 44°15' E 028°18'0 0.0
2018-Feb-25 03:22N 44°15' E 028°18'0 0.0
2018-Feb-25 02:59N 44°15' E 028°18'0 0.0
2018-Feb-25 02:29N 44°15' E 028°18'0 0.0
2018-Feb-25 02:00N 44°15' E 028°18'0 0.0
2018-Feb-24 22:26N 44°15' E 028°18'0 0.0
2018-Feb-24 21:51N 44°15' E 028°18'0 0.1
2018-Feb-24 19:32N 44°15' E 028°19'0 4.3
2018-Feb-24 19:30N 44°15' E 028°19'3 4.5
2018-Feb-24 18:56N 44°14' E 028°22'3 4.7
2018-Feb-24 18:17N 44°11' E 028°24'9 4.1
2018-Feb-24 16:10N 44°06' E 028°34'1 4.7
2018-Feb-24 16:00N 44°06' E 028°35'2 3.9
2018-Feb-24 15:30N 44°06' E 028°37'0 0.5
2018-Feb-24 15:00N 44°06' E 028°38'0 0.3
2018-Feb-24 14:30N 44°06' E 028°38'1 1.4
2018-Feb-24 14:00N 44°06' E 028°39'1 1.5
2018-Feb-24 13:30N 44°07' E 028°39'0 0.0
2018-Feb-24 13:00N 44°07' E 028°39'0 0.0
2018-Feb-24 12:30N 44°07' E 028°39'0 0.0
2018-Feb-24 12:00N 44°07' E 028°39'0 0.0
2018-Feb-24 11:30N 44°07' E 028°39'0 0.0
2018-Feb-24 11:00N 44°07' E 028°39'0 0.0
2018-Feb-24 10:29N 44°07' E 028°39'0 0.0
2018-Feb-24 10:00N 44°07' E 028°39'0 0.0
2018-Feb-24 09:31N 44°07' E 028°39'0 0.0
2018-Feb-24 09:00N 44°07' E 028°39'0 0.0
2018-Feb-24 08:30N 44°07' E 028°39'0 0.0
2018-Feb-24 08:01N 44°07' E 028°39'0 0.0
2018-Feb-24 07:31N 44°07' E 028°39'0 0.0
2018-Feb-24 07:00N 44°07' E 028°39'0 0.0
2018-Feb-24 06:30N 44°07' E 028°39'0 0.0
2018-Feb-24 06:00N 44°07' E 028°39'0 0.0
2018-Feb-24 05:31N 44°07' E 028°39'0 0.0
2018-Feb-24 05:00N 44°07' E 028°39'0 0.0
2018-Feb-24 04:31N 44°07' E 028°39'1 2.6
2018-Feb-24 04:00N 44°08' E 028°39'1 2.8
2018-Feb-24 03:30N 44°10' E 028°39'0 0.0
2018-Feb-24 03:01N 44°10' E 028°39'0 0.0
2018-Feb-24 02:31N 44°10' E 028°39'0 0.0
2018-Feb-24 02:00N 44°10' E 028°39'0 0.0
2018-Feb-24 01:30N 44°10' E 028°39'0 0.0
2018-Feb-24 01:00N 44°10' E 028°39'0 0.0
2018-Feb-24 00:31N 44°10' E 028°39'0 0.0
2018-Feb-24 00:00N 44°10' E 028°39'0 0.0
2018-Feb-23 23:31N 44°10' E 028°39'0 0.0
2018-Feb-23 23:00N 44°10' E 028°39'0 0.0
2018-Feb-23 22:30N 44°10' E 028°39'0 0.0
2018-Feb-23 22:00N 44°10' E 028°39'0 0.0
2018-Feb-23 21:30N 44°10' E 028°39'0 0.0
2018-Feb-23 21:00N 44°10' E 028°39'0 0.0
2018-Feb-23 20:31N 44°10' E 028°39'0 0.0
2018-Feb-23 20:01N 44°10' E 028°39'0 0.0
2018-Feb-23 19:30N 44°10' E 028°39'0 0.0
2018-Feb-23 19:00N 44°10' E 028°39'0 0.0
2018-Feb-23 18:30N 44°10' E 028°39'0 0.0
2018-Feb-23 18:00N 44°10' E 028°39'0 0.0
2018-Feb-23 17:30N 44°10' E 028°39'0 0.0
2018-Feb-23 17:00N 44°10' E 028°39'0 0.0
2018-Feb-23 16:29N 44°10' E 028°39'0 0.0
2018-Feb-23 16:00N 44°10' E 028°39'0 0.0
2018-Feb-23 15:31N 44°10' E 028°39'0 0.0
2018-Feb-23 15:00N 44°10' E 028°39'0 0.0
2018-Feb-23 14:31N 44°10' E 028°39'0 0.0
2018-Feb-23 14:00N 44°10' E 028°39'0 0.0
2018-Feb-23 13:30N 44°10' E 028°39'0 0.0
2018-Feb-23 13:00N 44°10' E 028°39'0 0.0
2018-Feb-23 12:31N 44°10' E 028°39'0 0.0
2018-Feb-23 12:00N 44°10' E 028°39'0 0.0
2018-Feb-23 11:31N 44°10' E 028°39'0 0.0
2018-Feb-23 11:00N 44°10' E 028°39'0 0.0
2018-Feb-23 10:30N 44°10' E 028°39'0 0.0
2018-Feb-23 10:00N 44°10' E 028°39'0 0.0
2018-Feb-23 09:30N 44°10' E 028°39'0 0.0
2018-Feb-23 08:59N 44°10' E 028°39'0 0.0
2018-Feb-23 08:30N 44°10' E 028°39'0 0.0
2018-Feb-23 08:00N 44°10' E 028°39'0 0.0
2018-Feb-23 07:30N 44°10' E 028°39'0 0.0
2018-Feb-23 07:00N 44°10' E 028°39'0 0.0
2018-Feb-23 06:30N 44°10' E 028°39'0 0.0
2018-Feb-23 06:00N 44°10' E 028°39'0 0.0
2018-Feb-23 05:30N 44°10' E 028°39'0 0.0
2018-Feb-23 05:00N 44°10' E 028°39'0 0.0
2018-Feb-23 04:29N 44°10' E 028°39'0 0.0
2018-Feb-23 04:01N 44°10' E 028°39'0 0.0
2018-Feb-23 03:30N 44°10' E 028°39'0 0.0
2018-Feb-23 03:00N 44°10' E 028°39'0 0.0
2018-Feb-23 02:31N 44°10' E 028°39'0 0.0
2018-Feb-23 02:00N 44°10' E 028°39'0 0.0
2018-Feb-23 01:30N 44°10' E 028°39'0 0.0
2018-Feb-23 01:00N 44°10' E 028°39'0 0.0
2018-Feb-23 00:30N 44°10' E 028°39'0 0.0
2018-Feb-23 00:00N 44°10' E 028°39'0 0.0
2018-Feb-22 23:31N 44°10' E 028°39'0 0.0
2018-Feb-22 23:00N 44°10' E 028°39'0 0.0
2018-Feb-22 22:29N 44°10' E 028°39'0 0.0
2018-Feb-22 22:00N 44°10' E 028°39'0 0.0
2018-Feb-22 21:30N 44°10' E 028°39'0 0.0
2018-Feb-22 21:00N 44°10' E 028°39'0 0.0
2018-Feb-22 20:31N 44°10' E 028°39'0 0.0
2018-Feb-22 19:59N 44°10' E 028°39'0 0.0
2018-Feb-22 19:30N 44°10' E 028°39'0 0.0
2018-Feb-22 19:00N 44°10' E 028°39'0 0.0
2018-Feb-22 18:30N 44°10' E 028°39'0 0.0
2018-Feb-22 18:00N 44°10' E 028°39'0 0.0
2018-Feb-22 17:30N 44°10' E 028°39'0 0.0
2018-Feb-22 17:00N 44°10' E 028°39'0 0.0
2018-Feb-22 16:30N 44°10' E 028°39'0 0.0
2018-Feb-22 16:00N 44°10' E 028°39'0 0.0
2018-Feb-22 15:30N 44°10' E 028°39'0 0.0
2018-Feb-22 15:01N 44°10' E 028°39'0 0.0
2018-Feb-22 14:30N 44°10' E 028°39'0 0.0
2018-Feb-22 14:00N 44°10' E 028°39'0 0.0
2018-Feb-22 13:30N 44°10' E 028°39'0 0.0
2018-Feb-22 13:00N 44°10' E 028°39'0 0.0
2018-Feb-22 12:30N 44°10' E 028°39'0 0.0
2018-Feb-22 12:00N 44°10' E 028°39'0 0.0
2018-Feb-22 11:30N 44°10' E 028°39'0 0.0
2018-Feb-22 11:00N 44°10' E 028°39'0 0.0
2018-Feb-22 10:30N 44°10' E 028°39'0 0.0
2018-Feb-22 10:00N 44°10' E 028°39'0 0.0
2018-Feb-22 09:30N 44°10' E 028°39'0 0.0
2018-Feb-22 09:00N 44°10' E 028°39'0 0.0
2018-Feb-22 08:30N 44°10' E 028°39'0 0.0
2018-Feb-22 08:00N 44°10' E 028°39'0 0.0
2018-Feb-22 07:30N 44°10' E 028°39'0 0.0
2018-Feb-22 07:00N 44°10' E 028°39'0 0.0
2018-Feb-22 06:30N 44°10' E 028°39'0 0.0
2018-Feb-22 06:00N 44°10' E 028°39'0 0.0
2018-Feb-22 05:30N 44°10' E 028°39'0 0.0
2018-Feb-22 05:00N 44°10' E 028°39'0 0.0
2018-Feb-22 04:30N 44°10' E 028°39'0 0.0
2018-Feb-22 04:00N 44°10' E 028°39'0 0.0
2018-Feb-22 03:31N 44°10' E 028°39'0 0.0
2018-Feb-22 03:00N 44°10' E 028°39'0 0.0
2018-Feb-22 02:29N 44°10' E 028°39'0 0.0
2018-Feb-22 02:00N 44°10' E 028°39'0 0.0
2018-Feb-22 01:30N 44°10' E 028°39'0 0.0
2018-Feb-22 01:00N 44°10' E 028°39'0 0.0
2018-Feb-22 00:30N 44°10' E 028°39'0 0.0
2018-Feb-22 00:00N 44°10' E 028°39'0 0.0
2018-Feb-21 23:30N 44°10' E 028°39'0 0.0
2018-Feb-21 23:01N 44°10' E 028°39'0 0.0
2018-Feb-21 22:30N 44°10' E 028°39'0 0.0
2018-Feb-21 22:00N 44°10' E 028°39'0 0.0
2018-Feb-21 21:30N 44°10' E 028°39'0 0.0
2018-Feb-21 21:00N 44°10' E 028°39'0 0.0
2018-Feb-21 20:30N 44°10' E 028°39'0 0.0
2018-Feb-21 20:00N 44°10' E 028°39'0 0.0
2018-Feb-21 19:30N 44°10' E 028°39'0 0.0
2018-Feb-21 19:00N 44°10' E 028°39'0 0.0
2018-Feb-21 18:30N 44°10' E 028°39'0 0.0
2018-Feb-21 18:01N 44°10' E 028°39'0 0.0
2018-Feb-21 17:30N 44°10' E 028°39'0 0.0
2018-Feb-21 17:00N 44°10' E 028°39'0 0.0
2018-Feb-21 16:30N 44°10' E 028°39'0 0.0
2018-Feb-21 16:00N 44°10' E 028°39'0 0.0
2018-Feb-21 15:30N 44°10' E 028°39'0 0.0
2018-Feb-21 15:00N 44°10' E 028°39'0 0.0
2018-Feb-21 14:29N 44°10' E 028°39'0 0.0
2018-Feb-21 14:00N 44°10' E 028°39'0 0.0
2018-Feb-21 13:31N 44°10' E 028°39'0 0.0
2018-Feb-21 13:00N 44°10' E 028°39'0 0.0
2018-Feb-21 12:30N 44°10' E 028°39'0 0.0
2018-Feb-21 12:01N 44°10' E 028°39'0 0.0
2018-Feb-21 11:30N 44°10' E 028°39'0 0.0
2018-Feb-21 11:00N 44°10' E 028°39'0 0.0
2018-Feb-21 10:31N 44°10' E 028°39'0 0.0
2018-Feb-21 10:00N 44°10' E 028°39'0 0.0
2018-Feb-21 09:30N 44°10' E 028°39'0 0.0
2018-Feb-21 09:00N 44°10' E 028°39'0 0.0
2018-Feb-21 08:30N 44°10' E 028°39'0 0.0
2018-Feb-21 08:00N 44°10' E 028°39'0 0.0
2018-Feb-21 07:30N 44°10' E 028°39'0 0.0
2018-Feb-21 07:00N 44°10' E 028°39'0 0.0
2018-Feb-21 06:30N 44°10' E 028°39'0 0.0
2018-Feb-21 06:00N 44°10' E 028°39'0 0.0
2018-Feb-21 05:31N 44°10' E 028°39'0 0.0
2018-Feb-21 05:00N 44°10' E 028°39'0 0.0
2018-Feb-21 04:30N 44°10' E 028°39'0 0.0
2018-Feb-21 04:00N 44°10' E 028°39'0 0.0
2018-Feb-21 03:30N 44°10' E 028°39'0 0.0
2018-Feb-21 03:00N 44°10' E 028°39'0 0.0
2018-Feb-21 02:30N 44°10' E 028°39'0 0.0
2018-Feb-21 02:00N 44°10' E 028°39'0 0.0
2018-Feb-21 01:30N 44°10' E 028°39'0 0.0
2018-Feb-21 01:00N 44°10' E 028°39'0 0.0
2018-Feb-21 00:30N 44°10' E 028°39'0 0.0
2018-Feb-21 00:01N 44°10' E 028°39'0 0.0
2018-Feb-20 23:30N 44°10' E 028°39'0 0.1
2018-Feb-20 23:00N 44°10' E 028°39'0 0.0
2018-Feb-20 22:30N 44°10' E 028°39'0 0.0
2018-Feb-20 22:00N 44°10' E 028°39'0 0.0
2018-Feb-20 21:30N 44°10' E 028°39'0 0.0
2018-Feb-20 21:00N 44°10' E 028°39'0 0.0
2018-Feb-20 20:29N 44°10' E 028°39'0 0.0
2018-Feb-20 20:00N 44°10' E 028°39'0 0.0
2018-Feb-20 19:30N 44°10' E 028°39'0 0.0
2018-Feb-20 19:00N 44°10' E 028°39'0 0.0
2018-Feb-20 18:30N 44°10' E 028°39'0 0.0
2018-Feb-20 18:00N 44°10' E 028°39'0 0.0
2018-Feb-20 17:30N 44°10' E 028°39'0 0.0
2018-Feb-20 17:00N 44°10' E 028°39'0 0.0
2018-Feb-20 16:30N 44°10' E 028°39'0 0.0
2018-Feb-20 16:01N 44°10' E 028°39'0 0.0
2018-Feb-20 15:30N 44°10' E 028°39'0 0.0
2018-Feb-20 15:00N 44°10' E 028°39'0 0.0
2018-Feb-20 14:30N 44°10' E 028°39'0 0.0
2018-Feb-20 14:00N 44°10' E 028°39'0 0.0
2018-Feb-20 13:30N 44°10' E 028°39'0 0.0
2018-Feb-20 13:00N 44°10' E 028°39'0 0.0
2018-Feb-20 12:30N 44°10' E 028°39'0 0.0
2018-Feb-20 12:00N 44°10' E 028°39'0 0.0
2018-Feb-20 11:29N 44°10' E 028°39'0 0.0
2018-Feb-20 11:01N 44°10' E 028°39'0 0.0
2018-Feb-20 10:31N 44°10' E 028°39'0 0.2
2018-Feb-20 10:01N 44°10' E 028°39'3 6.4
2018-Feb-20 09:30N 44°06' E 028°39'0 0.0
2018-Feb-20 09:00N 44°06' E 028°39'0 0.0
2018-Feb-20 08:29N 44°06' E 028°39'0 0.0
2018-Feb-20 08:01N 44°06' E 028°39'0 0.0
2018-Feb-20 07:30N 44°06' E 028°39'0 0.0
2018-Feb-20 07:00N 44°06' E 028°39'0 0.0
2018-Feb-20 06:30N 44°06' E 028°39'0 0.0
2018-Feb-20 06:01N 44°06' E 028°39'0 0.0
2018-Feb-20 05:30N 44°06' E 028°39'0 0.0
2018-Feb-20 05:00N 44°06' E 028°39'0 0.0
2018-Feb-20 04:30N 44°06' E 028°39'0 0.0
2018-Feb-20 04:00N 44°06' E 028°39'0 0.0
2018-Feb-20 03:30N 44°06' E 028°39'0 0.0
2018-Feb-20 03:00N 44°06' E 028°39'0 0.0
2018-Feb-20 02:30N 44°06' E 028°39'0 0.0
2018-Feb-20 02:00N 44°06' E 028°39'0 0.0
2018-Feb-20 01:30N 44°06' E 028°39'0 0.0
2018-Feb-20 01:00N 44°06' E 028°39'0 0.0
2018-Feb-20 00:30N 44°06' E 028°39'0 0.0
2018-Feb-20 00:00N 44°06' E 028°39'0 0.0
2018-Feb-19 23:30N 44°06' E 028°39'0 0.0
2018-Feb-19 23:00N 44°06' E 028°39'0 0.0
2018-Feb-19 22:29N 44°06' E 028°39'0 0.0
2018-Feb-19 22:00N 44°06' E 028°39'0 0.0
2018-Feb-19 21:29N 44°06' E 028°39'0 0.0
2018-Feb-19 21:00N 44°06' E 028°39'0 0.0
2018-Feb-19 20:31N 44°06' E 028°39'0 0.0
2018-Feb-19 20:00N 44°06' E 028°39'0 0.0
2018-Feb-19 19:30N 44°06' E 028°39'0 0.0
2018-Feb-19 19:00N 44°06' E 028°39'0 0.0
2018-Feb-19 18:31N 44°06' E 028°39'0 0.0
2018-Feb-19 18:00N 44°06' E 028°39'0 0.0
2018-Feb-19 17:30N 44°06' E 028°39'0 0.0
2018-Feb-19 17:00N 44°06' E 028°39'0 0.0
2018-Feb-19 16:30N 44°06' E 028°39'0 0.0
2018-Feb-19 16:00N 44°06' E 028°39'0 0.0
2018-Feb-19 15:30N 44°06' E 028°39'0 0.0
2018-Feb-19 15:00N 44°06' E 028°39'0 0.0
2018-Feb-19 14:30N 44°06' E 028°39'0 0.0
2018-Feb-19 14:00N 44°06' E 028°39'0 0.0
2018-Feb-19 13:31N 44°06' E 028°39'0 0.0
2018-Feb-19 13:01N 44°06' E 028°39'0 0.0
2018-Feb-19 12:29N 44°06' E 028°39'0 0.0
2018-Feb-19 12:01N 44°06' E 028°39'0 0.0
2018-Feb-19 11:31N 44°06' E 028°39'0 0.0
2018-Feb-19 11:01N 44°06' E 028°39'0 0.0
2018-Feb-19 10:30N 44°06' E 028°39'0 0.0
2018-Feb-19 10:00N 44°06' E 028°39'0 0.0
2018-Feb-19 09:30N 44°06' E 028°39'0 0.0
2018-Feb-19 09:00N 44°06' E 028°39'0 0.0
2018-Feb-19 08:30N 44°06' E 028°39'0 0.0
2018-Feb-19 08:00N 44°06' E 028°39'0 0.0
2018-Feb-19 07:31N 44°06' E 028°39'0 0.0
2018-Feb-19 07:00N 44°06' E 028°39'0 0.0
2018-Feb-19 06:30N 44°06' E 028°39'0 0.0
2018-Feb-19 05:59N 44°06' E 028°39'0 0.0
2018-Feb-19 05:30N 44°06' E 028°39'0 0.0
2018-Feb-19 05:00N 44°06' E 028°39'0 0.0
2018-Feb-19 04:30N 44°06' E 028°39'0 0.0
2018-Feb-19 04:01N 44°06' E 028°39'0 0.0
2018-Feb-19 03:31N 44°06' E 028°39'0 0.0
2018-Feb-19 03:00N 44°06' E 028°39'0 0.0
2018-Feb-19 02:30N 44°06' E 028°39'0 0.0
2018-Feb-19 02:00N 44°06' E 028°39'0 0.0
2018-Feb-19 01:31N 44°06' E 028°39'0 0.0
2018-Feb-19 01:00N 44°06' E 028°39'0 0.0
2018-Feb-19 00:31N 44°06' E 028°39'0 0.0
2018-Feb-19 00:00N 44°06' E 028°39'0 0.0
2018-Feb-18 23:30N 44°06' E 028°39'0 0.0
2018-Feb-18 23:00N 44°06' E 028°39'0 0.0
2018-Feb-18 22:30N 44°06' E 028°39'0 0.0
2018-Feb-18 22:01N 44°06' E 028°39'0 0.0
2018-Feb-18 21:30N 44°06' E 028°39'0 0.0
2018-Feb-18 21:01N 44°06' E 028°39'0 0.0
2018-Feb-18 20:28N 44°06' E 028°39'0 0.0
2018-Feb-18 20:00N 44°06' E 028°39'0 0.0
2018-Feb-18 19:30N 44°06' E 028°39'0 0.0
2018-Feb-18 19:00N 44°06' E 028°39'0 0.0
2018-Feb-18 18:30N 44°06' E 028°39'0 0.0
2018-Feb-18 18:00N 44°06' E 028°39'0 0.0
2018-Feb-18 17:30N 44°06' E 028°39'0 0.0
2018-Feb-18 17:00N 44°06' E 028°39'0 0.0
2018-Feb-18 16:30N 44°06' E 028°39'0 0.0
2018-Feb-18 16:00N 44°06' E 028°39'0 0.0
2018-Feb-18 15:30N 44°06' E 028°39'0 0.0
2018-Feb-18 15:00N 44°06' E 028°39'0 0.0
2018-Feb-18 14:31N 44°06' E 028°39'0 0.0
2018-Feb-18 14:00N 44°06' E 028°39'0 0.0
2018-Feb-18 13:30N 44°06' E 028°39'0 0.0
2018-Feb-18 13:00N 44°06' E 028°39'0 0.0
2018-Feb-18 12:30N 44°06' E 028°39'0 0.0
2018-Feb-18 12:00N 44°06' E 028°39'0 0.0
2018-Feb-18 11:30N 44°06' E 028°39'0 0.0
2018-Feb-18 11:01N 44°06' E 028°39'0 0.0
2018-Feb-18 10:30N 44°06' E 028°39'0 0.0
2018-Feb-18 10:00N 44°06' E 028°39'0 0.0
2018-Feb-18 09:30N 44°06' E 028°39'0 0.0
2018-Feb-18 09:00N 44°06' E 028°39'0 0.0
2018-Feb-18 08:30N 44°06' E 028°39'0 0.0
2018-Feb-18 08:00N 44°06' E 028°39'0 0.0
2018-Feb-18 07:30N 44°06' E 028°39'0 0.0
2018-Feb-18 07:01N 44°06' E 028°39'0 0.0
2018-Feb-18 06:30N 44°06' E 028°39'0 0.0
2018-Feb-18 06:00N 44°06' E 028°39'0 0.0
2018-Feb-18 05:30N 44°06' E 028°39'0 0.0
2018-Feb-18 05:00N 44°06' E 028°39'0 0.0
2018-Feb-18 04:30N 44°06' E 028°39'0 0.0
2018-Feb-18 04:00N 44°06' E 028°39'0 0.0
2018-Feb-18 03:30N 44°06' E 028°39'0 0.0
2018-Feb-18 03:00N 44°06' E 028°39'0 0.0
2018-Feb-18 02:30N 44°06' E 028°39'0 0.0
2018-Feb-18 02:01N 44°06' E 028°39'0 0.0
2018-Feb-18 01:30N 44°06' E 028°39'0 0.0
2018-Feb-18 01:00N 44°06' E 028°39'0 0.0
2018-Feb-18 00:31N 44°06' E 028°39'0 0.0
2018-Feb-17 23:59N 44°06' E 028°39'0 0.0
2018-Feb-17 23:30N 44°06' E 028°39'0 0.0
2018-Feb-17 23:00N 44°06' E 028°39'0 0.0
2018-Feb-17 22:30N 44°06' E 028°39'0 0.0
2018-Feb-17 22:00N 44°06' E 028°39'0 0.0
2018-Feb-17 21:30N 44°06' E 028°39'0 0.0
2018-Feb-17 21:01N 44°06' E 028°39'0 0.0
2018-Feb-17 20:30N 44°06' E 028°39'0 0.0
2018-Feb-17 20:01N 44°06' E 028°39'0 0.0
2018-Feb-17 19:30N 44°06' E 028°39'1 1.2
2018-Feb-17 19:00N 44°07' E 028°39'0 0.6
2018-Feb-17 18:30N 44°07' E 028°39'1 2.8
2018-Feb-17 18:00N 44°06' E 028°37'0 0.0
2018-Feb-17 17:30N 44°06' E 028°37'2 3.3
2018-Feb-17 17:00N 44°06' E 028°35'7 4.3
2018-Feb-17 15:18N 44°09' E 028°26'2 5.1
2018-Feb-17 15:00N 44°10' E 028°24'3 5.1
2018-Feb-17 14:30N 44°13' E 028°23'3 5.1
2018-Feb-17 14:00N 44°15' E 028°21'2 4.9
2018-Feb-17 13:30N 44°15' E 028°18'3 5.1
2018-Feb-17 13:00N 44°15' E 028°14'3 5.1
2018-Feb-17 12:30N 44°16' E 028°11'3 5.2
2018-Feb-17 12:00N 44°16' E 028°07'2 4.8
2018-Feb-17 11:30N 44°17' E 028°04'  
Track history (hours):
 
Tides and Currents Weather Stations Pressure Air Temp Water Temp Dewpoint Dewpoint Depression Visibility Wind Speed Wind Dir Waves Ship Positions

Elvira+3

Last reported at 2018-Feb-25 05:07 UTC. Time now 2018-Feb-25 05:54 UTC.
Position N 44°16' E 028°11'.

Length 165 m.

Type: Cargo ship. MMSI: 238493940.

Date/timePositionNaut miles runAvg speedWind from/ knotsBaromVisibWave heightAir tempDewpointWater temp
2018-Feb-25 05:07N 44°16' E 028°11'1 4.8
2018-Feb-25 05:00N 44°16' E 028°12'3 4.8
2018-Feb-25 04:28N 44°15' E 028°16'2 4.4
2018-Feb-25 04:00N 44°15' E 028°18'0 0.0
2018-Feb-25 03:22N 44°15' E 028°18'0 0.0
2018-Feb-25 02:59N 44°15' E 028°18'0 0.0
2018-Feb-25 02:29N 44°15' E 028°18'0 0.0
2018-Feb-25 02:00N 44°15' E 028°18'0 0.0
2018-Feb-24 22:26N 44°15' E 028°18'0 0.0
2018-Feb-24 21:51N 44°15' E 028°18'0 0.1
2018-Feb-24 19:32N 44°15' E 028°19'0 4.3
2018-Feb-24 19:30N 44°15' E 028°19'3 4.5
2018-Feb-24 18:56N 44°14' E 028°22'3 4.7
2018-Feb-24 18:17N 44°11' E 028°24'9 4.1
2018-Feb-24 16:10N 44°06' E 028°34'1 4.7
2018-Feb-24 16:00N 44°06' E 028°35'2 3.9
2018-Feb-24 15:30N 44°06' E 028°37'0 0.5
2018-Feb-24 15:00N 44°06' E 028°38'0 0.3
2018-Feb-24 14:30N 44°06' E 028°38'1 1.4
2018-Feb-24 14:00N 44°06' E 028°39'1 1.5
2018-Feb-24 13:30N 44°07' E 028°39'0 0.0
2018-Feb-24 13:00N 44°07' E 028°39'0 0.0
2018-Feb-24 12:30N 44°07' E 028°39'0 0.0
2018-Feb-24 12:00N 44°07' E 028°39'0 0.0
2018-Feb-24 11:30N 44°07' E 028°39'0 0.0
2018-Feb-24 11:00N 44°07' E 028°39'0 0.0
2018-Feb-24 10:29N 44°07' E 028°39'0 0.0
2018-Feb-24 10:00N 44°07' E 028°39'0 0.0
2018-Feb-24 09:31N 44°07' E 028°39'0 0.0
2018-Feb-24 09:00N 44°07' E 028°39'0 0.0
2018-Feb-24 08:30N 44°07' E 028°39'0 0.0
2018-Feb-24 08:01N 44°07' E 028°39'0 0.0
2018-Feb-24 07:31N 44°07' E 028°39'0 0.0
2018-Feb-24 07:00N 44°07' E 028°39'0 0.0
2018-Feb-24 06:30N 44°07' E 028°39'0 0.0
2018-Feb-24 06:00N 44°07' E 028°39'0 0.0
2018-Feb-24 05:31N 44°07' E 028°39'0 0.0
2018-Feb-24 05:00N 44°07' E 028°39'0 0.0
2018-Feb-24 04:31N 44°07' E 028°39'1 2.6
2018-Feb-24 04:00N 44°08' E 028°39'1 2.8
2018-Feb-24 03:30N 44°10' E 028°39'0 0.0
2018-Feb-24 03:01N 44°10' E 028°39'0 0.0
2018-Feb-24 02:31N 44°10' E 028°39'0 0.0
2018-Feb-24 02:00N 44°10' E 028°39'0 0.0
2018-Feb-24 01:30N 44°10' E 028°39'0 0.0
2018-Feb-24 01:00N 44°10' E 028°39'0 0.0
2018-Feb-24 00:31N 44°10' E 028°39'0 0.0
2018-Feb-24 00:00N 44°10' E 028°39'0 0.0
2018-Feb-23 23:31N 44°10' E 028°39'0 0.0
2018-Feb-23 23:00N 44°10' E 028°39'0 0.0
2018-Feb-23 22:30N 44°10' E 028°39'0 0.0
2018-Feb-23 22:00N 44°10' E 028°39'0 0.0
2018-Feb-23 21:30N 44°10' E 028°39'0 0.0
2018-Feb-23 21:00N 44°10' E 028°39'0 0.0
2018-Feb-23 20:31N 44°10' E 028°39'0 0.0
2018-Feb-23 20:01N 44°10' E 028°39'0 0.0
2018-Feb-23 19:30N 44°10' E 028°39'0 0.0
2018-Feb-23 19:00N 44°10' E 028°39'0 0.0
2018-Feb-23 18:30N 44°10' E 028°39'0 0.0
2018-Feb-23 18:00N 44°10' E 028°39'0 0.0
2018-Feb-23 17:30N 44°10' E 028°39'0 0.0
2018-Feb-23 17:00N 44°10' E 028°39'0 0.0
2018-Feb-23 16:29N 44°10' E 028°39'0 0.0
2018-Feb-23 16:00N 44°10' E 028°39'0 0.0
2018-Feb-23 15:31N 44°10' E 028°39'0 0.0
2018-Feb-23 15:00N 44°10' E 028°39'0 0.0
2018-Feb-23 14:31N 44°10' E 028°39'0 0.0
2018-Feb-23 14:00N 44°10' E 028°39'0 0.0
2018-Feb-23 13:30N 44°10' E 028°39'0 0.0
2018-Feb-23 13:00N 44°10' E 028°39'0 0.0
2018-Feb-23 12:31N 44°10' E 028°39'0 0.0
2018-Feb-23 12:00N 44°10' E 028°39'0 0.0
2018-Feb-23 11:31N 44°10' E 028°39'0 0.0
2018-Feb-23 11:00N 44°10' E 028°39'0 0.0
2018-Feb-23 10:30N 44°10' E 028°39'0 0.0
2018-Feb-23 10:00N 44°10' E 028°39'0 0.0
2018-Feb-23 09:30N 44°10' E 028°39'0 0.0
2018-Feb-23 08:59N 44°10' E 028°39'0 0.0
2018-Feb-23 08:30N 44°10' E 028°39'0 0.0
2018-Feb-23 08:00N 44°10' E 028°39'0 0.0
2018-Feb-23 07:30N 44°10' E 028°39'0 0.0
2018-Feb-23 07:00N 44°10' E 028°39'0 0.0
2018-Feb-23 06:30N 44°10' E 028°39'0 0.0
2018-Feb-23 06:00N 44°10' E 028°39'0 0.0
2018-Feb-23 05:30N 44°10' E 028°39'0 0.0
2018-Feb-23 05:00N 44°10' E 028°39'0 0.0
2018-Feb-23 04:29N 44°10' E 028°39'0 0.0
2018-Feb-23 04:01N 44°10' E 028°39'0 0.0
2018-Feb-23 03:30N 44°10' E 028°39'0 0.0
2018-Feb-23 03:00N 44°10' E 028°39'0 0.0
2018-Feb-23 02:31N 44°10' E 028°39'0 0.0
2018-Feb-23 02:00N 44°10' E 028°39'0 0.0
2018-Feb-23 01:30N 44°10' E 028°39'0 0.0
2018-Feb-23 01:00N 44°10' E 028°39'0 0.0
2018-Feb-23 00:30N 44°10' E 028°39'0 0.0
2018-Feb-23 00:00N 44°10' E 028°39'0 0.0
2018-Feb-22 23:31N 44°10' E 028°39'0 0.0
2018-Feb-22 23:00N 44°10' E 028°39'0 0.0
2018-Feb-22 22:29N 44°10' E 028°39'0 0.0
2018-Feb-22 22:00N 44°10' E 028°39'0 0.0
2018-Feb-22 21:30N 44°10' E 028°39'0 0.0
2018-Feb-22 21:00N 44°10' E 028°39'0 0.0
2018-Feb-22 20:31N 44°10' E 028°39'0 0.0
2018-Feb-22 19:59N 44°10' E 028°39'0 0.0
2018-Feb-22 19:30N 44°10' E 028°39'0 0.0
2018-Feb-22 19:00N 44°10' E 028°39'0 0.0
2018-Feb-22 18:30N 44°10' E 028°39'0 0.0
2018-Feb-22 18:00N 44°10' E 028°39'0 0.0
2018-Feb-22 17:30N 44°10' E 028°39'0 0.0
2018-Feb-22 17:00N 44°10' E 028°39'0 0.0
2018-Feb-22 16:30N 44°10' E 028°39'0 0.0
2018-Feb-22 16:00N 44°10' E 028°39'0 0.0
2018-Feb-22 15:30N 44°10' E 028°39'0 0.0
2018-Feb-22 15:01N 44°10' E 028°39'0 0.0
2018-Feb-22 14:30N 44°10' E 028°39'0 0.0
2018-Feb-22 14:00N 44°10' E 028°39'0 0.0
2018-Feb-22 13:30N 44°10' E 028°39'0 0.0
2018-Feb-22 13:00N 44°10' E 028°39'0 0.0
2018-Feb-22 12:30N 44°10' E 028°39'0 0.0
2018-Feb-22 12:00N 44°10' E 028°39'0 0.0
2018-Feb-22 11:30N 44°10' E 028°39'0 0.0
2018-Feb-22 11:00N 44°10' E 028°39'0 0.0
2018-Feb-22 10:30N 44°10' E 028°39'0 0.0
2018-Feb-22 10:00N 44°10' E 028°39'0 0.0
2018-Feb-22 09:30N 44°10' E 028°39'0 0.0
2018-Feb-22 09:00N 44°10' E 028°39'0 0.0
2018-Feb-22 08:30N 44°10' E 028°39'0 0.0
2018-Feb-22 08:00N 44°10' E 028°39'0 0.0
2018-Feb-22 07:30N 44°10' E 028°39'0 0.0
2018-Feb-22 07:00N 44°10' E 028°39'0 0.0
2018-Feb-22 06:30N 44°10' E 028°39'0 0.0
2018-Feb-22 06:00N 44°10' E 028°39'0 0.0
2018-Feb-22 05:30N 44°10' E 028°39'0 0.0
2018-Feb-22 05:00N 44°10' E 028°39'0 0.0
2018-Feb-22 04:30N 44°10' E 028°39'0 0.0
2018-Feb-22 04:00N 44°10' E 028°39'0 0.0
2018-Feb-22 03:31N 44°10' E 028°39'0 0.0
2018-Feb-22 03:00N 44°10' E 028°39'0 0.0
2018-Feb-22 02:29N 44°10' E 028°39'0 0.0
2018-Feb-22 02:00N 44°10' E 028°39'0 0.0
2018-Feb-22 01:30N 44°10' E 028°39'0 0.0
2018-Feb-22 01:00N 44°10' E 028°39'0 0.0
2018-Feb-22 00:30N 44°10' E 028°39'0 0.0
2018-Feb-22 00:00N 44°10' E 028°39'0 0.0
2018-Feb-21 23:30N 44°10' E 028°39'0 0.0
2018-Feb-21 23:01N 44°10' E 028°39'0 0.0
2018-Feb-21 22:30N 44°10' E 028°39'0 0.0
2018-Feb-21 22:00N 44°10' E 028°39'0 0.0
2018-Feb-21 21:30N 44°10' E 028°39'0 0.0
2018-Feb-21 21:00N 44°10' E 028°39'0 0.0
2018-Feb-21 20:30N 44°10' E 028°39'0 0.0
2018-Feb-21 20:00N 44°10' E 028°39'0 0.0
2018-Feb-21 19:30N 44°10' E 028°39'0 0.0
2018-Feb-21 19:00N 44°10' E 028°39'0 0.0
2018-Feb-21 18:30N 44°10' E 028°39'0 0.0
2018-Feb-21 18:01N 44°10' E 028°39'0 0.0
2018-Feb-21 17:30N 44°10' E 028°39'0 0.0
2018-Feb-21 17:00N 44°10' E 028°39'0 0.0
2018-Feb-21 16:30N 44°10' E 028°39'0 0.0
2018-Feb-21 16:00N 44°10' E 028°39'0 0.0
2018-Feb-21 15:30N 44°10' E 028°39'0 0.0
2018-Feb-21 15:00N 44°10' E 028°39'0 0.0
2018-Feb-21 14:29N 44°10' E 028°39'0 0.0
2018-Feb-21 14:00N 44°10' E 028°39'0 0.0
2018-Feb-21 13:31N 44°10' E 028°39'0 0.0
2018-Feb-21 13:00N 44°10' E 028°39'0 0.0
2018-Feb-21 12:30N 44°10' E 028°39'0 0.0
2018-Feb-21 12:01N 44°10' E 028°39'0 0.0
2018-Feb-21 11:30N 44°10' E 028°39'0 0.0
2018-Feb-21 11:00N 44°10' E 028°39'0 0.0
2018-Feb-21 10:31N 44°10' E 028°39'0 0.0
2018-Feb-21 10:00N 44°10' E 028°39'0 0.0
2018-Feb-21 09:30N 44°10' E 028°39'0 0.0
2018-Feb-21 09:00N 44°10' E 028°39'0 0.0
2018-Feb-21 08:30N 44°10' E 028°39'0 0.0
2018-Feb-21 08:00N 44°10' E 028°39'0 0.0
2018-Feb-21 07:30N 44°10' E 028°39'0 0.0
2018-Feb-21 07:00N 44°10' E 028°39'0 0.0
2018-Feb-21 06:30N 44°10' E 028°39'0 0.0
2018-Feb-21 06:00N 44°10' E 028°39'0 0.0
2018-Feb-21 05:31N 44°10' E 028°39'0 0.0
2018-Feb-21 05:00N 44°10' E 028°39'0 0.0
2018-Feb-21 04:30N 44°10' E 028°39'0 0.0
2018-Feb-21 04:00N 44°10' E 028°39'0 0.0
2018-Feb-21 03:30N 44°10' E 028°39'0 0.0
2018-Feb-21 03:00N 44°10' E 028°39'0 0.0
2018-Feb-21 02:30N 44°10' E 028°39'0 0.0
2018-Feb-21 02:00N 44°10' E 028°39'0 0.0
2018-Feb-21 01:30N 44°10' E 028°39'0 0.0
2018-Feb-21 01:00N 44°10' E 028°39'0 0.0
2018-Feb-21 00:30N 44°10' E 028°39'0 0.0
2018-Feb-21 00:01N 44°10' E 028°39'0 0.0
2018-Feb-20 23:30N 44°10' E 028°39'0 0.1
2018-Feb-20 23:00N 44°10' E 028°39'0 0.0
2018-Feb-20 22:30N 44°10' E 028°39'0 0.0
2018-Feb-20 22:00N 44°10' E 028°39'0 0.0
2018-Feb-20 21:30N 44°10' E 028°39'0 0.0
2018-Feb-20 21:00N 44°10' E 028°39'0 0.0
2018-Feb-20 20:29N 44°10' E 028°39'0 0.0
2018-Feb-20 20:00N 44°10' E 028°39'0 0.0
2018-Feb-20 19:30N 44°10' E 028°39'0 0.0
2018-Feb-20 19:00N 44°10' E 028°39'0 0.0
2018-Feb-20 18:30N 44°10' E 028°39'0 0.0
2018-Feb-20 18:00N 44°10' E 028°39'0 0.0
2018-Feb-20 17:30N 44°10' E 028°39'0 0.0
2018-Feb-20 17:00N 44°10' E 028°39'0 0.0
2018-Feb-20 16:30N 44°10' E 028°39'0 0.0
2018-Feb-20 16:01N 44°10' E 028°39'0 0.0
2018-Feb-20 15:30N 44°10' E 028°39'0 0.0
2018-Feb-20 15:00N 44°10' E 028°39'0 0.0
2018-Feb-20 14:30N 44°10' E 028°39'0 0.0
2018-Feb-20 14:00N 44°10' E 028°39'0 0.0
2018-Feb-20 13:30N 44°10' E 028°39'0 0.0
2018-Feb-20 13:00N 44°10' E 028°39'0 0.0
2018-Feb-20 12:30N 44°10' E 028°39'0 0.0
2018-Feb-20 12:00N 44°10' E 028°39'0 0.0
2018-Feb-20 11:29N 44°10' E 028°39'0 0.0
2018-Feb-20 11:01N 44°10' E 028°39'0 0.0
2018-Feb-20 10:31N 44°10' E 028°39'0 0.2
2018-Feb-20 10:01N 44°10' E 028°39'3 6.4
2018-Feb-20 09:30N 44°06' E 028°39'0 0.0
2018-Feb-20 09:00N 44°06' E 028°39'0 0.0
2018-Feb-20 08:29N 44°06' E 028°39'0 0.0
2018-Feb-20 08:01N 44°06' E 028°39'0 0.0
2018-Feb-20 07:30N 44°06' E 028°39'0 0.0
2018-Feb-20 07:00N 44°06' E 028°39'0 0.0
2018-Feb-20 06:30N 44°06' E 028°39'0 0.0
2018-Feb-20 06:01N 44°06' E 028°39'0 0.0
2018-Feb-20 05:30N 44°06' E 028°39'0 0.0
2018-Feb-20 05:00N 44°06' E 028°39'0 0.0
2018-Feb-20 04:30N 44°06' E 028°39'0 0.0
2018-Feb-20 04:00N 44°06' E 028°39'0 0.0
2018-Feb-20 03:30N 44°06' E 028°39'0 0.0
2018-Feb-20 03:00N 44°06' E 028°39'0 0.0
2018-Feb-20 02:30N 44°06' E 028°39'0 0.0
2018-Feb-20 02:00N 44°06' E 028°39'0 0.0
2018-Feb-20 01:30N 44°06' E 028°39'0 0.0
2018-Feb-20 01:00N 44°06' E 028°39'0 0.0
2018-Feb-20 00:30N 44°06' E 028°39'0 0.0
2018-Feb-20 00:00N 44°06' E 028°39'0 0.0
2018-Feb-19 23:30N 44°06' E 028°39'0 0.0
2018-Feb-19 23:00N 44°06' E 028°39'0 0.0
2018-Feb-19 22:29N 44°06' E 028°39'0 0.0
2018-Feb-19 22:00N 44°06' E 028°39'0 0.0
2018-Feb-19 21:29N 44°06' E 028°39'0 0.0
2018-Feb-19 21:00N 44°06' E 028°39'0 0.0
2018-Feb-19 20:31N 44°06' E 028°39'0 0.0
2018-Feb-19 20:00N 44°06' E 028°39'0 0.0
2018-Feb-19 19:30N 44°06' E 028°39'0 0.0
2018-Feb-19 19:00N 44°06' E 028°39'0 0.0
2018-Feb-19 18:31N 44°06' E 028°39'0 0.0
2018-Feb-19 18:00N 44°06' E 028°39'0 0.0
2018-Feb-19 17:30N 44°06' E 028°39'0 0.0
2018-Feb-19 17:00N 44°06' E 028°39'0 0.0
2018-Feb-19 16:30N 44°06' E 028°39'0 0.0
2018-Feb-19 16:00N 44°06' E 028°39'0 0.0
2018-Feb-19 15:30N 44°06' E 028°39'0 0.0
2018-Feb-19 15:00N 44°06' E 028°39'0 0.0
2018-Feb-19 14:30N 44°06' E 028°39'0 0.0
2018-Feb-19 14:00N 44°06' E 028°39'0 0.0
2018-Feb-19 13:31N 44°06' E 028°39'0 0.0
2018-Feb-19 13:01N 44°06' E 028°39'0 0.0
2018-Feb-19 12:29N 44°06' E 028°39'0 0.0
2018-Feb-19 12:01N 44°06' E 028°39'0 0.0
2018-Feb-19 11:31N 44°06' E 028°39'0 0.0
2018-Feb-19 11:01N 44°06' E 028°39'0 0.0
2018-Feb-19 10:30N 44°06' E 028°39'0 0.0
2018-Feb-19 10:00N 44°06' E 028°39'0 0.0
2018-Feb-19 09:30N 44°06' E 028°39'0 0.0
2018-Feb-19 09:00N 44°06' E 028°39'0 0.0
2018-Feb-19 08:30N 44°06' E 028°39'0 0.0
2018-Feb-19 08:00N 44°06' E 028°39'0 0.0
2018-Feb-19 07:31N 44°06' E 028°39'0 0.0
2018-Feb-19 07:00N 44°06' E 028°39'0 0.0
2018-Feb-19 06:30N 44°06' E 028°39'0 0.0
2018-Feb-19 05:59N 44°06' E 028°39'0 0.0
2018-Feb-19 05:30N 44°06' E 028°39'0 0.0
2018-Feb-19 05:00N 44°06' E 028°39'0 0.0
2018-Feb-19 04:30N 44°06' E 028°39'0 0.0
2018-Feb-19 04:01N 44°06' E 028°39'0 0.0
2018-Feb-19 03:31N 44°06' E 028°39'0 0.0
2018-Feb-19 03:00N 44°06' E 028°39'0 0.0
2018-Feb-19 02:30N 44°06' E 028°39'0 0.0
2018-Feb-19 02:00N 44°06' E 028°39'0 0.0
2018-Feb-19 01:31N 44°06' E 028°39'0 0.0
2018-Feb-19 01:00N 44°06' E 028°39'0 0.0
2018-Feb-19 00:31N 44°06' E 028°39'0 0.0
2018-Feb-19 00:00N 44°06' E 028°39'0 0.0
2018-Feb-18 23:30N 44°06' E 028°39'0 0.0
2018-Feb-18 23:00N 44°06' E 028°39'0 0.0
2018-Feb-18 22:30N 44°06' E 028°39'0 0.0
2018-Feb-18 22:01N 44°06' E 028°39'0 0.0
2018-Feb-18 21:30N 44°06' E 028°39'0 0.0
2018-Feb-18 21:01N 44°06' E 028°39'0 0.0
2018-Feb-18 20:28N 44°06' E 028°39'0 0.0
2018-Feb-18 20:00N 44°06' E 028°39'0 0.0
2018-Feb-18 19:30N 44°06' E 028°39'0 0.0
2018-Feb-18 19:00N 44°06' E 028°39'0 0.0
2018-Feb-18 18:30N 44°06' E 028°39'0 0.0
2018-Feb-18 18:00N 44°06' E 028°39'0 0.0
2018-Feb-18 17:30N 44°06' E 028°39'0 0.0
2018-Feb-18 17:00N 44°06' E 028°39'0 0.0
2018-Feb-18 16:30N 44°06' E 028°39'0 0.0
2018-Feb-18 16:00N 44°06' E 028°39'0 0.0
2018-Feb-18 15:30N 44°06' E 028°39'0 0.0
2018-Feb-18 15:00N 44°06' E 028°39'0 0.0
2018-Feb-18 14:31N 44°06' E 028°39'0 0.0
2018-Feb-18 14:00N 44°06' E 028°39'0 0.0
2018-Feb-18 13:30N 44°06' E 028°39'0 0.0
2018-Feb-18 13:00N 44°06' E 028°39'0 0.0
2018-Feb-18 12:30N 44°06' E 028°39'0 0.0
2018-Feb-18 12:00N 44°06' E 028°39'0 0.0
2018-Feb-18 11:30N 44°06' E 028°39'0 0.0
2018-Feb-18 11:01N 44°06' E 028°39'0 0.0
2018-Feb-18 10:30N 44°06' E 028°39'0 0.0
2018-Feb-18 10:00N 44°06' E 028°39'0 0.0
2018-Feb-18 09:30N 44°06' E 028°39'0 0.0
2018-Feb-18 09:00N 44°06' E 028°39'0 0.0
2018-Feb-18 08:30N 44°06' E 028°39'0 0.0
2018-Feb-18 08:00N 44°06' E 028°39'0 0.0
2018-Feb-18 07:30N 44°06' E 028°39'0 0.0
2018-Feb-18 07:01N 44°06' E 028°39'0 0.0
2018-Feb-18 06:30N 44°06' E 028°39'0 0.0
2018-Feb-18 06:00N 44°06' E 028°39'0 0.0
2018-Feb-18 05:30N 44°06' E 028°39'0 0.0
2018-Feb-18 05:00N 44°06' E 028°39'0 0.0
2018-Feb-18 04:30N 44°06' E 028°39'0 0.0
2018-Feb-18 04:00N 44°06' E 028°39'0 0.0
2018-Feb-18 03:30N 44°06' E 028°39'0 0.0
2018-Feb-18 03:00N 44°06' E 028°39'0 0.0
2018-Feb-18 02:30N 44°06' E 028°39'0 0.0
2018-Feb-18 02:01N 44°06' E 028°39'0 0.0
2018-Feb-18 01:30N 44°06' E 028°39'0 0.0
2018-Feb-18 01:00N 44°06' E 028°39'0 0.0
2018-Feb-18 00:31N 44°06' E 028°39'0 0.0
2018-Feb-17 23:59N 44°06' E 028°39'0 0.0
2018-Feb-17 23:30N 44°06' E 028°39'0 0.0
2018-Feb-17 23:00N 44°06' E 028°39'0 0.0
2018-Feb-17 22:30N 44°06' E 028°39'0 0.0
2018-Feb-17 22:00N 44°06' E 028°39'0 0.0
2018-Feb-17 21:30N 44°06' E 028°39'0 0.0
2018-Feb-17 21:01N 44°06' E 028°39'0 0.0
2018-Feb-17 20:30N 44°06' E 028°39'0 0.0
2018-Feb-17 20:01N 44°06' E 028°39'0 0.0
2018-Feb-17 19:30N 44°06' E 028°39'1 1.2
2018-Feb-17 19:00N 44°07' E 028°39'0 0.6
2018-Feb-17 18:30N 44°07' E 028°39'1 2.8
2018-Feb-17 18:00N 44°06' E 028°37'0 0.0
2018-Feb-17 17:30N 44°06' E 028°37'2 3.3
2018-Feb-17 17:00N 44°06' E 028°35'7 4.3
2018-Feb-17 15:18N 44°09' E 028°26'2 5.1
2018-Feb-17 15:00N 44°10' E 028°24'3 5.1
2018-Feb-17 14:30N 44°13' E 028°23'3 5.1
2018-Feb-17 14:00N 44°15' E 028°21'2 4.9
2018-Feb-17 13:30N 44°15' E 028°18'3 5.1
2018-Feb-17 13:00N 44°15' E 028°14'3 5.1
2018-Feb-17 12:30N 44°16' E 028°11'3 5.2
2018-Feb-17 12:00N 44°16' E 028°07'2 4.8
2018-Feb-17 11:30N 44°17' E 028°04'  

Dump ship's entire track history